Cayo Largo del Sur, Cuba
Current Conditions -  °F | °C
As of 6:55 AM on Friday 24 Oct 2014 (Local Time) from MUCL Reporting Station
Broken Clouds Broken Clouds  
Wind Chill: 79°   Ceiling: 6000
Heat Index: 82°   Visibility: 5mi
Dew Point: 73°   Wind: 6mph
Humidity: 83%   Direction: 170°S
Pressure: 29.8"   Gusts: NA
Location:  21.63°N, 81.47°W
Report Text: MUCL 241055Z 17005KT 8000 SCT018 BKN060 26/23 Q1009
Loading
Personal Weather Stations






























Interactive Weather Map
Tropical Storm Tracking
New forecast layout! Learn more

10-Day Weather Forecast

Advertisements
Track Severe Weather on mobile